sensor_id;sensor_type;location;lat;lon;timestamp;temperature;humidity
25328;DHT22;13279;51.300;12.394;2023-03-01T00:01:31;0.10;99.90
25328;DHT22;13279;51.300;12.394;2023-03-01T00:03:59;0.10;99.90
25328;DHT22;13279;51.300;12.394;2023-03-01T00:06:27;0.10;99.90
25328;DHT22;13279;51.300;12.394;2023-03-01T00:08:56;0.20;99.90
25328;DHT22;13279;51.300;12.394;2023-03-01T00:11:25;0.20;99.90
25328;DHT22;13279;51.300;12.394;2023-03-01T00:13:54;0.20;99.90
25328;DHT22;13279;51.300;12.394;2023-03-01T00:16:24;0.30;99.90
25328;DHT22;13279;51.300;12.394;2023-03-01T00:18:51;0.20;99.90
25328;DHT22;13279;51.300;12.394;2023-03-01T00:21:20;0.20;99.90
25328;DHT22;13279;51.300;12.394;2023-03-01T00:23:48;0.20;99.90
25328;DHT22;13279;51.300;12.394;2023-03-01T00:26:19;0.20;99.90
25328;DHT22;13279;51.300;12.394;2023-03-01T00:28:47;0.20;99.90
25328;DHT22;13279;51.300;12.394;2023-03-01T00:31:15;0.20;99.90
25328;DHT22;13279;51.300;12.394;2023-03-01T00:33:44;0.10;99.90
25328;DHT22;13279;51.300;12.394;2023-03-01T00:36:13;0.10;99.90
25328;DHT22;13279;51.300;12.394;2023-03-01T00:38:43;0.10;99.90
25328;DHT22;13279;51.300;12.394;2023-03-01T00:41:13;0.10;99.90
25328;DHT22;13279;51.300;12.394;2023-03-01T00:43:43;0.10;99.90
25328;DHT22;13279;51.300;12.394;2023-03-01T00:46:12;0.10;99.90
25328;DHT22;13279;51.300;12.394;2023-03-01T00:48:40;0.00;99.90
25328;DHT22;13279;51.300;12.394;2023-03-01T00:51:09;0.00;99.90
25328;DHT22;13279;51.300;12.394;2023-03-01T00:53:37;0.00;99.90
25328;DHT22;13279;51.300;12.394;2023-03-01T00:56:07;0.00;99.90
25328;DHT22;13279;51.300;12.394;2023-03-01T00:58:35;0.00;99.90
25328;DHT22;13279;51.300;12.394;2023-03-01T01:01:09;0.00;99.90
25328;DHT22;13279;51.300;12.394;2023-03-01T01:03:44;0.00;99.90
25328;DHT22;13279;51.300;12.394;2023-03-01T01:06:16;0.00;99.90
25328;DHT22;13279;51.300;12.394;2023-03-01T01:08:44;0.00;99.90
25328;DHT22;13279;51.300;12.394;2023-03-01T01:11:12;0.00;99.90
25328;DHT22;13279;51.300;12.394;2023-03-01T01:13:40;-0.10;99.90
25328;DHT22;13279;51.300;12.394;2023-03-01T01:16:09;-0.10;99.90
25328;DHT22;13279;51.300;12.394;2023-03-01T01:18:37;-0.10;99.90
25328;DHT22;13279;51.300;12.394;2023-03-01T01:21:06;-0.10;99.90
25328;DHT22;13279;51.300;12.394;2023-03-01T01:23:34;-0.10;99.90
25328;DHT22;13279;51.300;12.394;2023-03-01T01:26:06;-0.20;99.90
25328;DHT22;13279;51.300;12.394;2023-03-01T01:28:34;-0.20;99.90
25328;DHT22;13279;51.300;12.394;2023-03-01T01:31:02;-0.20;99.90
25328;DHT22;13279;51.300;12.394;2023-03-01T01:33:31;-0.20;99.90
25328;DHT22;13279;51.300;12.394;2023-03-01T01:35:59;-0.20;99.90
25328;DHT22;13279;51.300;12.394;2023-03-01T01:38:27;-0.20;99.90
25328;DHT22;13279;51.300;12.394;2023-03-01T01:40:54;-0.20;99.90
25328;DHT22;13279;51.300;12.394;2023-03-01T01:43:24;-0.20;99.90
25328;DHT22;13279;51.300;12.394;2023-03-01T01:45:55;-0.20;99.90
25328;DHT22;13279;51.300;12.394;2023-03-01T01:48:27;-0.20;99.90
25328;DHT22;13279;51.300;12.394;2023-03-01T01:51:10;-0.20;99.90
25328;DHT22;13279;51.300;12.394;2023-03-01T01:53:39;-0.30;99.90
25328;DHT22;13279;51.300;12.394;2023-03-01T01:56:09;-0.30;99.90
25328;DHT22;13279;51.300;12.394;2023-03-01T01:58:38;-0.30;99.90
25328;DHT22;13279;51.300;12.394;2023-03-01T02:01:06;-0.40;99.90
25328;DHT22;13279;51.300;12.394;2023-03-01T02:03:37;-0.40;99.90
25328;DHT22;13279;51.300;12.394;2023-03-01T02:06:18;-0.40;99.90
25328;DHT22;13279;51.300;12.394;2023-03-01T02:08:49;-0.40;99.90
25328;DHT22;13279;51.300;12.394;2023-03-01T02:11:17;-0.40;99.90
25328;DHT22;13279;51.300;12.394;2023-03-01T02:13:48;-0.40;99.90
25328;DHT22;13279;51.300;12.394;2023-03-01T02:16:17;-0.40;99.90
25328;DHT22;13279;51.300;12.394;2023-03-01T02:18:44;-0.50;99.90
25328;DHT22;13279;51.300;12.394;2023-03-01T02:21:27;-0.50;99.90
25328;DHT22;13279;51.300;12.394;2023-03-01T02:23:59;-0.50;99.90
25328;DHT22;13279;51.300;12.394;2023-03-01T02:26:35;-0.50;99.90
25328;DHT22;13279;51.300;12.394;2023-03-01T02:29:07;-0.50;99.90
25328;DHT22;13279;51.300;12.394;2023-03-01T02:31:34;-0.50;99.90
25328;DHT22;13279;51.300;12.394;2023-03-01T02:34:09;-0.50;99.90
25328;DHT22;13279;51.300;12.394;2023-03-01T02:36:39;-0.50;99.90
25328;DHT22;13279;51.300;12.394;2023-03-01T02:39:12;-0.50;99.90
25328;DHT22;13279;51.300;12.394;2023-03-01T02:41:47;-0.50;99.90
25328;DHT22;13279;51.300;12.394;2023-03-01T02:44:16;-0.50;99.90
25328;DHT22;13279;51.300;12.394;2023-03-01T02:46:46;-0.50;99.90
25328;DHT22;13279;51.300;12.394;2023-03-01T02:49:23;-0.50;99.90
25328;DHT22;13279;51.300;12.394;2023-03-01T02:52:08;-0.50;99.90
25328;DHT22;13279;51.300;12.394;2023-03-01T02:54:42;-0.50;99.90
25328;DHT22;13279;51.300;12.394;2023-03-01T02:57:12;-0.50;99.90
25328;DHT22;13279;51.300;12.394;2023-03-01T02:59:43;-0.50;99.90
25328;DHT22;13279;51.300;12.394;2023-03-01T03:02:19;-0.60;99.90
25328;DHT22;13279;51.300;12.394;2023-03-01T03:05:08;-0.50;99.90
25328;DHT22;13279;51.300;12.394;2023-03-01T03:07:37;-0.60;99.90
25328;DHT22;13279;51.300;12.394;2023-03-01T03:10:07;-0.60;99.90
25328;DHT22;13279;51.300;12.394;2023-03-01T03:12:37;-0.70;99.90
25328;DHT22;13279;51.300;12.394;2023-03-01T03:15:09;-0.60;99.90
25328;DHT22;13279;51.300;12.394;2023-03-01T03:17:40;-0.60;99.90
25328;DHT22;13279;51.300;12.394;2023-03-01T03:20:11;-0.70;99.90
25328;DHT22;13279;51.300;12.394;2023-03-01T03:22:39;-0.70;99.90
25328;DHT22;13279;51.300;12.394;2023-03-01T03:25:07;-0.70;99.90
25328;DHT22;13279;51.300;12.394;2023-03-01T03:27:41;-0.80;99.90
25328;DHT22;13279;51.300;12.394;2023-03-01T03:30:14;-0.80;99.90
25328;DHT22;13279;51.300;12.394;2023-03-01T03:32:44;-0.90;99.90
25328;DHT22;13279;51.300;12.394;2023-03-01T03:35:19;-0.90;99.90
25328;DHT22;13279;51.300;12.394;2023-03-01T03:37:46;-0.90;99.90
25328;DHT22;13279;51.300;12.394;2023-03-01T03:40:32;-0.90;99.90
25328;DHT22;13279;51.300;12.394;2023-03-01T03:42:59;-1.00;99.90
25328;DHT22;13279;51.300;12.394;2023-03-01T03:45:28;-1.00;99.90
25328;DHT22;13279;51.300;12.394;2023-03-01T03:47:55;-1.00;99.90
25328;DHT22;13279;51.300;12.394;2023-03-01T03:50:23;-1.00;99.90
25328;DHT22;13279;51.300;12.394;2023-03-01T03:52:50;-1.00;99.90
25328;DHT22;13279;51.300;12.394;2023-03-01T03:55:18;-1.00;99.90
25328;DHT22;13279;51.300;12.394;2023-03-01T03:57:46;-1.00;99.90
25328;DHT22;13279;51.300;12.394;2023-03-01T04:00:19;-1.00;99.90
25328;DHT22;13279;51.300;12.394;2023-03-01T04:02:49;-1.00;99.90
25328;DHT22;13279;51.300;12.394;2023-03-01T04:05:17;-1.00;99.90
25328;DHT22;13279;51.300;12.394;2023-03-01T04:07:46;-1.10;99.90
25328;DHT22;13279;51.300;12.394;2023-03-01T04:10:17;-1.10;99.90
25328;DHT22;13279;51.300;12.394;2023-03-01T04:12:44;-1.10;99.90
25328;DHT22;13279;51.300;12.394;2023-03-01T04:15:12;-1.10;99.90
25328;DHT22;13279;51.300;12.394;2023-03-01T04:17:43;-1.10;99.90
25328;DHT22;13279;51.300;12.394;2023-03-01T04:20:14;-1.10;99.90
25328;DHT22;13279;51.300;12.394;2023-03-01T04:22:44;-1.20;99.90
25328;DHT22;13279;51.300;12.394;2023-03-01T04:25:13;-1.20;99.90
25328;DHT22;13279;51.300;12.394;2023-03-01T04:27:40;-1.20;99.90
25328;DHT22;13279;51.300;12.394;2023-03-01T04:30:09;-1.20;99.90
25328;DHT22;13279;51.300;12.394;2023-03-01T04:32:36;-1.30;99.90
25328;DHT22;13279;51.300;12.394;2023-03-01T04:35:04;-1.30;99.90
25328;DHT22;13279;51.300;12.394;2023-03-01T04:37:33;-1.30;99.90
25328;DHT22;13279;51.300;12.394;2023-03-01T04:40:00;-1.30;99.90
25328;DHT22;13279;51.300;12.394;2023-03-01T04:42:34;-1.30;99.90
25328;DHT22;13279;51.300;12.394;2023-03-01T04:45:02;-1.30;99.90
25328;DHT22;13279;51.300;12.394;2023-03-01T04:47:29;-1.30;99.90
25328;DHT22;13279;51.300;12.394;2023-03-01T04:49:56;-1.30;99.90
25328;DHT22;13279;51.300;12.394;2023-03-01T04:52:23;-1.30;99.90
25328;DHT22;13279;51.300;12.394;2023-03-01T04:54:52;-1.30;99.90
25328;DHT22;13279;51.300;12.394;2023-03-01T04:57:19;-1.30;99.90
25328;DHT22;13279;51.300;12.394;2023-03-01T04:59:46;-1.30;99.90
25328;DHT22;13279;51.300;12.394;2023-03-01T05:02:14;-1.30;99.90
25328;DHT22;13279;51.300;12.394;2023-03-01T05:04:41;-1.30;99.90
25328;DHT22;13279;51.300;12.394;2023-03-01T05:07:09;-1.40;99.90
25328;DHT22;13279;51.300;12.394;2023-03-01T05:09:38;-1.40;99.90
25328;DHT22;13279;51.300;12.394;2023-03-01T05:12:07;-1.40;99.90
25328;DHT22;13279;51.300;12.394;2023-03-01T05:14:35;-1.50;99.90
25328;DHT22;13279;51.300;12.394;2023-03-01T05:17:04;-1.50;99.90
25328;DHT22;13279;51.300;12.394;2023-03-01T05:19:32;-1.60;99.90
25328;DHT22;13279;51.300;12.394;2023-03-01T05:22:00;-1.60;99.90
25328;DHT22;13279;51.300;12.394;2023-03-01T05:24:32;-1.60;99.90
25328;DHT22;13279;51.300;12.394;2023-03-01T05:27:00;-1.60;99.90
25328;DHT22;13279;51.300;12.394;2023-03-01T05:29:31;-1.60;99.90
25328;DHT22;13279;51.300;12.394;2023-03-01T05:32:02;-1.60;99.90
25328;DHT22;13279;51.300;12.394;2023-03-01T05:34:31;-1.60;99.90
25328;DHT22;13279;51.300;12.394;2023-03-01T05:36:59;-1.60;99.90
25328;DHT22;13279;51.300;12.394;2023-03-01T05:39:29;-1.70;99.90
25328;DHT22;13279;51.300;12.394;2023-03-01T05:41:59;-1.70;99.90
25328;DHT22;13279;51.300;12.394;2023-03-01T05:44:28;-1.70;99.90
25328;DHT22;13279;51.300;12.394;2023-03-01T05:46:56;-1.80;99.90
25328;DHT22;13279;51.300;12.394;2023-03-01T05:49:23;-1.80;99.90
25328;DHT22;13279;51.300;12.394;2023-03-01T05:51:53;-1.80;99.90
25328;DHT22;13279;51.300;12.394;2023-03-01T05:54:21;-1.90;99.90
25328;DHT22;13279;51.300;12.394;2023-03-01T05:56:48;-1.90;99.90
25328;DHT22;13279;51.300;12.394;2023-03-01T05:59:15;-1.90;99.90
25328;DHT22;13279;51.300;12.394;2023-03-01T06:01:44;-2.00;99.90
25328;DHT22;13279;51.300;12.394;2023-03-01T06:04:12;-2.00;99.90
25328;DHT22;13279;51.300;12.394;2023-03-01T06:06:39;-2.00;99.90
25328;DHT22;13279;51.300;12.394;2023-03-01T06:09:07;-2.00;99.90
25328;DHT22;13279;51.300;12.394;2023-03-01T06:11:36;-1.90;99.90
25328;DHT22;13279;51.300;12.394;2023-03-01T06:14:04;-1.90;99.90
25328;DHT22;13279;51.300;12.394;2023-03-01T06:16:32;-1.90;99.90
25328;DHT22;13279;51.300;12.394;2023-03-01T06:19:01;-1.90;99.90
25328;DHT22;13279;51.300;12.394;2023-03-01T06:21:28;-2.00;99.90
25328;DHT22;13279;51.300;12.394;2023-03-01T06:23:56;-2.00;99.90
25328;DHT22;13279;51.300;12.394;2023-03-01T06:26:23;-2.00;99.90
25328;DHT22;13279;51.300;12.394;2023-03-01T06:28:50;-2.00;99.90
25328;DHT22;13279;51.300;12.394;2023-03-01T06:31:18;-1.90;99.90
25328;DHT22;13279;51.300;12.394;2023-03-01T06:33:45;-1.90;99.90
25328;DHT22;13279;51.300;12.394;2023-03-01T06:36:15;-1.90;99.90
25328;DHT22;13279;51.300;12.394;2023-03-01T06:38:44;-1.90;99.90
25328;DHT22;13279;51.300;12.394;2023-03-01T06:41:11;-1.90;99.90
25328;DHT22;13279;51.300;12.394;2023-03-01T06:43:38;-2.00;99.90
25328;DHT22;13279;51.300;12.394;2023-03-01T06:46:06;-2.00;99.90
25328;DHT22;13279;51.300;12.394;2023-03-01T06:48:34;-2.00;99.90
25328;DHT22;13279;51.300;12.394;2023-03-01T06:51:01;-2.00;99.90
25328;DHT22;13279;51.300;12.394;2023-03-01T06:53:30;-1.90;99.90
25328;DHT22;13279;51.300;12.394;2023-03-01T06:55:58;-1.90;99.90
25328;DHT22;13279;51.300;12.394;2023-03-01T06:58:26;-1.90;99.90
25328;DHT22;13279;51.300;12.394;2023-03-01T07:00:53;-1.80;99.90
25328;DHT22;13279;51.300;12.394;2023-03-01T07:03:20;-1.70;99.90
25328;DHT22;13279;51.300;12.394;2023-03-01T07:05:49;-1.70;99.90
25328;DHT22;13279;51.300;12.394;2023-03-01T07:08:18;-1.70;99.90
25328;DHT22;13279;51.300;12.394;2023-03-01T07:10:47;-1.60;99.90
25328;DHT22;13279;51.300;12.394;2023-03-01T07:13:14;-1.60;99.90
25328;DHT22;13279;51.300;12.394;2023-03-01T07:15:42;-1.60;99.90
25328;DHT22;13279;51.300;12.394;2023-03-01T07:18:09;-1.50;99.90
25328;DHT22;13279;51.300;12.394;2023-03-01T07:20:37;-1.40;99.90
25328;DHT22;13279;51.300;12.394;2023-03-01T07:23:06;-1.30;99.90
25328;DHT22;13279;51.300;12.394;2023-03-01T07:25:34;-1.10;99.90
25328;DHT22;13279;51.300;12.394;2023-03-01T07:28:03;-0.80;99.90
25328;DHT22;13279;51.300;12.394;2023-03-01T07:30:30;-0.70;99.90
25328;DHT22;13279;51.300;12.394;2023-03-01T07:32:58;-0.50;99.90
25328;DHT22;13279;51.300;12.394;2023-03-01T07:35:27;-0.30;99.90
25328;DHT22;13279;51.300;12.394;2023-03-01T07:37:54;-0.10;99.90
25328;DHT22;13279;51.300;12.394;2023-03-01T07:40:22;0.10;99.90
25328;DHT22;13279;51.300;12.394;2023-03-01T07:42:49;0.10;99.90
25328;DHT22;13279;51.300;12.394;2023-03-01T07:45:18;0.20;99.90
25328;DHT22;13279;51.300;12.394;2023-03-01T07:47:45;0.30;99.90
25328;DHT22;13279;51.300;12.394;2023-03-01T07:50:13;0.60;99.90
25328;DHT22;13279;51.300;12.394;2023-03-01T07:52:41;0.70;99.90
25328;DHT22;13279;51.300;12.394;2023-03-01T07:55:12;1.00;99.90
25328;DHT22;13279;51.300;12.394;2023-03-01T07:57:55;1.10;99.90
25328;DHT22;13279;51.300;12.394;2023-03-01T08:00:25;1.20;99.90
25328;DHT22;13279;51.300;12.394;2023-03-01T08:02:52;1.20;99.90
25328;DHT22;13279;51.300;12.394;2023-03-01T08:05:34;1.40;99.90
25328;DHT22;13279;51.300;12.394;2023-03-01T08:08:02;1.60;99.90
25328;DHT22;13279;51.300;12.394;2023-03-01T08:10:31;1.70;99.90
25328;DHT22;13279;51.300;12.394;2023-03-01T08:12:59;1.70;99.90
25328;DHT22;13279;51.300;12.394;2023-03-01T08:15:28;1.90;99.90
25328;DHT22;13279;51.300;12.394;2023-03-01T08:17:59;1.90;99.90
25328;DHT22;13279;51.300;12.394;2023-03-01T08:20:27;2.10;99.90
25328;DHT22;13279;51.300;12.394;2023-03-01T08:22:54;2.10;99.90
25328;DHT22;13279;51.300;12.394;2023-03-01T08:25:25;2.20;99.90
25328;DHT22;13279;51.300;12.394;2023-03-01T08:27:53;2.30;99.90
25328;DHT22;13279;51.300;12.394;2023-03-01T08:30:21;2.60;99.90
25328;DHT22;13279;51.300;12.394;2023-03-01T08:32:51;2.70;99.90
25328;DHT22;13279;51.300;12.394;2023-03-01T08:35:20;2.80;99.90
25328;DHT22;13279;51.300;12.394;2023-03-01T08:37:54;2.80;99.90
25328;DHT22;13279;51.300;12.394;2023-03-01T08:41:00;3.00;99.90
25328;DHT22;13279;51.300;12.394;2023-03-01T08:43:43;3.10;99.90
25328;DHT22;13279;51.300;12.394;2023-03-01T08:46:11;3.30;99.90
25328;DHT22;13279;51.300;12.394;2023-03-01T08:48:40;3.40;99.90
25328;DHT22;13279;51.300;12.394;2023-03-01T08:51:10;3.30;99.90
25328;DHT22;13279;51.300;12.394;2023-03-01T08:53:38;3.50;99.90
25328;DHT22;13279;51.300;12.394;2023-03-01T08:56:07;3.60;99.90
25328;DHT22;13279;51.300;12.394;2023-03-01T08:58:34;3.50;99.90
25328;DHT22;13279;51.300;12.394;2023-03-01T09:01:07;3.70;99.90
25328;DHT22;13279;51.300;12.394;2023-03-01T09:03:35;3.80;99.90
25328;DHT22;13279;51.300;12.394;2023-03-01T09:06:05;3.80;99.90
25328;DHT22;13279;51.300;12.394;2023-03-01T09:08:35;4.00;99.90
25328;DHT22;13279;51.300;12.394;2023-03-01T09:11:03;4.10;99.90
25328;DHT22;13279;51.300;12.394;2023-03-01T09:13:30;4.30;99.90
25328;DHT22;13279;51.300;12.394;2023-03-01T09:15:58;4.60;99.90
25328;DHT22;13279;51.300;12.394;2023-03-01T09:18:26;4.50;99.90
25328;DHT22;13279;51.300;12.394;2023-03-01T09:21:00;4.40;99.90
25328;DHT22;13279;51.300;12.394;2023-03-01T09:23:28;4.40;99.90
25328;DHT22;13279;51.300;12.394;2023-03-01T09:25:56;4.50;99.90
25328;DHT22;13279;51.300;12.394;2023-03-01T09:28:24;4.40;99.90
25328;DHT22;13279;51.300;12.394;2023-03-01T09:30:51;4.50;99.90
25328;DHT22;13279;51.300;12.394;2023-03-01T09:33:19;4.50;99.90
25328;DHT22;13279;51.300;12.394;2023-03-01T09:35:46;4.40;99.90
25328;DHT22;13279;51.300;12.394;2023-03-01T09:38:14;4.40;99.90
25328;DHT22;13279;51.300;12.394;2023-03-01T09:40:46;4.40;99.90
25328;DHT22;13279;51.300;12.394;2023-03-01T09:43:20;4.50;99.90
25328;DHT22;13279;51.300;12.394;2023-03-01T09:45:50;4.60;99.90
25328;DHT22;13279;51.300;12.394;2023-03-01T09:48:25;4.80;99.90
25328;DHT22;13279;51.300;12.394;2023-03-01T09:50:54;4.90;99.90
25328;DHT22;13279;51.300;12.394;2023-03-01T09:53:23;5.10;99.90
25328;DHT22;13279;51.300;12.394;2023-03-01T09:56:00;5.40;99.90
25328;DHT22;13279;51.300;12.394;2023-03-01T09:58:36;5.10;99.90
25328;DHT22;13279;51.300;12.394;2023-03-01T10:01:22;5.10;99.90
25328;DHT22;13279;51.300;12.394;2023-03-01T10:04:06;5.30;99.90
25328;DHT22;13279;51.300;12.394;2023-03-01T10:06:38;5.40;99.90
25328;DHT22;13279;51.300;12.394;2023-03-01T10:09:11;5.20;99.90
25328;DHT22;13279;51.300;12.394;2023-03-01T10:11:47;5.30;99.90
25328;DHT22;13279;51.300;12.394;2023-03-01T10:14:24;5.20;99.90
25328;DHT22;13279;51.300;12.394;2023-03-01T10:16:58;5.20;99.90
25328;DHT22;13279;51.300;12.394;2023-03-01T10:19:32;5.40;99.90
25328;DHT22;13279;51.300;12.394;2023-03-01T10:22:05;5.40;99.90
25328;DHT22;13279;51.300;12.394;2023-03-01T10:24:38;5.50;99.90
25328;DHT22;13279;51.300;12.394;2023-03-01T10:27:09;5.40;99.90
25328;DHT22;13279;51.300;12.394;2023-03-01T10:29:46;5.40;99.90
25328;DHT22;13279;51.300;12.394;2023-03-01T10:32:16;5.50;99.90
25328;DHT22;13279;51.300;12.394;2023-03-01T10:34:50;5.50;99.90
25328;DHT22;13279;51.300;12.394;2023-03-01T10:37:18;5.70;99.90
25328;DHT22;13279;51.300;12.394;2023-03-01T10:39:58;5.70;99.90
25328;DHT22;13279;51.300;12.394;2023-03-01T10:42:35;5.60;99.90
25328;DHT22;13279;51.300;12.394;2023-03-01T10:45:17;5.70;99.90
25328;DHT22;13279;51.300;12.394;2023-03-01T10:48:04;5.60;99.90
25328;DHT22;13279;51.300;12.394;2023-03-01T10:50:32;5.90;99.90
25328;DHT22;13279;51.300;12.394;2023-03-01T10:53:01;6.00;99.90
25328;DHT22;13279;51.300;12.394;2023-03-01T10:55:34;5.70;99.90
25328;DHT22;13279;51.300;12.394;2023-03-01T10:58:15;5.70;99.90
25328;DHT22;13279;51.300;12.394;2023-03-01T11:00:47;5.70;99.90
25328;DHT22;13279;51.300;12.394;2023-03-01T11:03:19;5.90;99.90
25328;DHT22;13279;51.300;12.394;2023-03-01T11:06:00;5.80;99.90
25328;DHT22;13279;51.300;12.394;2023-03-01T11:08:34;6.00;99.90
25328;DHT22;13279;51.300;12.394;2023-03-01T11:11:13;6.20;99.90
25328;DHT22;13279;51.300;12.394;2023-03-01T11:13:56;6.40;99.90
25328;DHT22;13279;51.300;12.394;2023-03-01T11:16:31;6.50;99.90
25328;DHT22;13279;51.300;12.394;2023-03-01T11:19:14;6.70;99.90
25328;DHT22;13279;51.300;12.394;2023-03-01T11:21:47;6.70;99.90
25328;DHT22;13279;51.300;12.394;2023-03-01T11:24:19;6.70;99.90
25328;DHT22;13279;51.300;12.394;2023-03-01T11:26:52;6.60;99.90
25328;DHT22;13279;51.300;12.394;2023-03-01T11:29:28;6.90;99.90
25328;DHT22;13279;51.300;12.394;2023-03-01T11:32:02;6.90;99.90
25328;DHT22;13279;51.300;12.394;2023-03-01T11:34:42;6.80;99.90
25328;DHT22;13279;51.300;12.394;2023-03-01T11:37:20;6.90;99.90
25328;DHT22;13279;51.300;12.394;2023-03-01T11:40:02;7.00;99.90
25328;DHT22;13279;51.300;12.394;2023-03-01T11:42:42;6.60;99.90
25328;DHT22;13279;51.300;12.394;2023-03-01T11:45:13;6.20;99.90
25328;DHT22;13279;51.300;12.394;2023-03-01T11:48:11;5.90;99.90
25328;DHT22;13279;51.300;12.394;2023-03-01T11:50:44;5.90;99.90
25328;DHT22;13279;51.300;12.394;2023-03-01T11:53:30;6.10;99.90
25328;DHT22;13279;51.300;12.394;2023-03-01T11:56:07;6.20;99.90
25328;DHT22;13279;51.300;12.394;2023-03-01T12:01:37;6.40;99.90
25328;DHT22;13279;51.300;12.394;2023-03-01T12:04:30;6.60;99.90
25328;DHT22;13279;51.300;12.394;2023-03-01T12:07:03;6.60;99.90
25328;DHT22;13279;51.300;12.394;2023-03-01T12:09:55;6.60;99.90
25328;DHT22;13279;51.300;12.394;2023-03-01T12:12:46;6.90;99.90
25328;DHT22;13279;51.300;12.394;2023-03-01T12:15:33;6.80;99.90
25328;DHT22;13279;51.300;12.394;2023-03-01T12:21:27;6.80;99.90
25328;DHT22;13279;51.300;12.394;2023-03-01T12:24:27;6.80;99.90
25328;DHT22;13279;51.300;12.394;2023-03-01T12:27:12;6.80;99.90
25328;DHT22;13279;51.300;12.394;2023-03-01T12:29:52;6.90;99.90
25328;DHT22;13279;51.300;12.394;2023-03-01T12:32:39;6.90;99.90
25328;DHT22;13279;51.300;12.394;2023-03-01T12:38:25;6.70;99.90
25328;DHT22;13279;51.300;12.394;2023-03-01T12:41:21;6.90;99.90
25328;DHT22;13279;51.300;12.394;2023-03-01T12:44:01;7.20;99.90
25328;DHT22;13279;51.300;12.394;2023-03-01T12:46:45;7.50;99.90
25328;DHT22;13279;51.300;12.394;2023-03-01T12:49:23;7.20;99.90
25328;DHT22;13279;51.300;12.394;2023-03-01T12:51:58;6.70;99.90
25328;DHT22;13279;51.300;12.394;2023-03-01T12:54:31;6.80;99.90
25328;DHT22;13279;51.300;12.394;2023-03-01T12:57:05;6.80;99.90
25328;DHT22;13279;51.300;12.394;2023-03-01T12:59:38;7.50;99.90
25328;DHT22;13279;51.300;12.394;2023-03-01T13:02:16;7.70;99.90
25328;DHT22;13279;51.300;12.394;2023-03-01T13:05:00;7.90;99.90
25328;DHT22;13279;51.300;12.394;2023-03-01T13:07:36;8.00;99.90
25328;DHT22;13279;51.300;12.394;2023-03-01T13:10:24;8.40;99.90
25328;DHT22;13279;51.300;12.394;2023-03-01T13:13:01;8.40;99.90
25328;DHT22;13279;51.300;12.394;2023-03-01T13:15:32;8.20;99.90
25328;DHT22;13279;51.300;12.394;2023-03-01T13:18:02;8.20;99.90
25328;DHT22;13279;51.300;12.394;2023-03-01T13:20:47;8.50;99.90
25328;DHT22;13279;51.300;12.394;2023-03-01T13:23:38;8.40;99.90
25328;DHT22;13279;51.300;12.394;2023-03-01T13:26:14;8.30;99.90
25328;DHT22;13279;51.300;12.394;2023-03-01T13:28:56;8.10;99.90
25328;DHT22;13279;51.300;12.394;2023-03-01T13:31:59;8.40;99.90
25328;DHT22;13279;51.300;12.394;2023-03-01T13:34:49;8.30;99.90
25328;DHT22;13279;51.300;12.394;2023-03-01T13:37:29;8.60;99.90
25328;DHT22;13279;51.300;12.394;2023-03-01T13:40:00;9.10;99.90
25328;DHT22;13279;51.300;12.394;2023-03-01T13:45:34;9.30;99.90
25328;DHT22;13279;51.300;12.394;2023-03-01T13:48:09;9.60;99.90
25328;DHT22;13279;51.300;12.394;2023-03-01T13:50:45;9.50;99.90
25328;DHT22;13279;51.300;12.394;2023-03-01T13:53:17;9.50;99.90
25328;DHT22;13279;51.300;12.394;2023-03-01T13:55:48;9.60;99.90
25328;DHT22;13279;51.300;12.394;2023-03-01T13:58:23;9.60;99.90
25328;DHT22;13279;51.300;12.394;2023-03-01T14:01:01;10.00;99.90
25328;DHT22;13279;51.300;12.394;2023-03-01T14:03:30;10.00;99.90
25328;DHT22;13279;51.300;12.394;2023-03-01T14:06:02;10.00;99.90
25328;DHT22;13279;51.300;12.394;2023-03-01T14:08:33;9.90;99.90
25328;DHT22;13279;51.300;12.394;2023-03-01T14:11:30;9.90;99.90
25328;DHT22;13279;51.300;12.394;2023-03-01T14:14:23;10.20;99.90
25328;DHT22;13279;51.300;12.394;2023-03-01T14:17:01;10.80;99.90
25328;DHT22;13279;51.300;12.394;2023-03-01T14:19:31;11.00;99.90
25328;DHT22;13279;51.300;12.394;2023-03-01T14:22:16;10.70;99.90
25328;DHT22;13279;51.300;12.394;2023-03-01T14:24:50;10.90;99.90
25328;DHT22;13279;51.300;12.394;2023-03-01T14:27:20;11.10;99.90
25328;DHT22;13279;51.300;12.394;2023-03-01T14:29:55;11.00;99.90
25328;DHT22;13279;51.300;12.394;2023-03-01T14:32:25;11.20;99.90
25328;DHT22;13279;51.300;12.394;2023-03-01T14:34:54;11.40;99.90
25328;DHT22;13279;51.300;12.394;2023-03-01T14:37:24;11.20;99.90
25328;DHT22;13279;51.300;12.394;2023-03-01T14:39:52;11.00;99.90
25328;DHT22;13279;51.300;12.394;2023-03-01T14:42:23;10.80;99.90
25328;DHT22;13279;51.300;12.394;2023-03-01T14:44:54;10.90;99.90
25328;DHT22;13279;51.300;12.394;2023-03-01T14:47:27;10.80;99.90
25328;DHT22;13279;51.300;12.394;2023-03-01T14:49:58;11.10;99.90
25328;DHT22;13279;51.300;12.394;2023-03-01T14:52:33;11.40;99.90
25328;DHT22;13279;51.300;12.394;2023-03-01T14:55:05;11.80;99.90
25328;DHT22;13279;51.300;12.394;2023-03-01T14:57:34;11.70;99.90
25328;DHT22;13279;51.300;12.394;2023-03-01T15:00:05;11.70;99.90
25328;DHT22;13279;51.300;12.394;2023-03-01T15:02:34;11.60;99.90
25328;DHT22;13279;51.300;12.394;2023-03-01T15:05:03;11.90;99.90
25328;DHT22;13279;51.300;12.394;2023-03-01T15:07:36;11.90;99.90
25328;DHT22;13279;51.300;12.394;2023-03-01T15:10:17;11.70;99.90
25328;DHT22;13279;51.300;12.394;2023-03-01T15:12:48;11.50;99.90
25328;DHT22;13279;51.300;12.394;2023-03-01T15:15:34;11.60;99.90
25328;DHT22;13279;51.300;12.394;2023-03-01T15:18:05;12.00;99.90
25328;DHT22;13279;51.300;12.394;2023-03-01T15:20:34;12.10;99.90
25328;DHT22;13279;51.300;12.394;2023-03-01T15:23:04;11.60;99.90
25328;DHT22;13279;51.300;12.394;2023-03-01T15:25:33;12.10;99.90
25328;DHT22;13279;51.300;12.394;2023-03-01T15:28:03;12.60;99.90
25328;DHT22;13279;51.300;12.394;2023-03-01T15:30:32;12.90;99.90
25328;DHT22;13279;51.300;12.394;2023-03-01T15:33:18;12.60;99.90
25328;DHT22;13279;51.300;12.394;2023-03-01T15:35:48;12.30;99.60
25328;DHT22;13279;51.300;12.394;2023-03-01T15:38:28;11.60;99.20
25328;DHT22;13279;51.300;12.394;2023-03-01T15:40:59;11.30;99.70
25328;DHT22;13279;51.300;12.394;2023-03-01T15:43:46;11.10;99.60
25328;DHT22;13279;51.300;12.394;2023-03-01T15:46:23;11.00;99.40
25328;DHT22;13279;51.300;12.394;2023-03-01T15:48:53;10.90;99.80
25328;DHT22;13279;51.300;12.394;2023-03-01T15:51:29;11.10;99.90
25328;DHT22;13279;51.300;12.394;2023-03-01T15:53:59;11.10;99.90
25328;DHT22;13279;51.300;12.394;2023-03-01T15:56:27;11.00;99.90
25328;DHT22;13279;51.300;12.394;2023-03-01T15:59:00;10.70;99.90
25328;DHT22;13279;51.300;12.394;2023-03-01T16:01:29;10.60;99.90
25328;DHT22;13279;51.300;12.394;2023-03-01T16:03:56;10.30;99.90
25328;DHT22;13279;51.300;12.394;2023-03-01T16:06:25;10.30;99.90